sensor_id;sensor_type;location;lat;lon;timestamp;P1;durP1;ratioP1;P2;durP2;ratioP2
57746;SDS011;43580;44.014;20.466;2023-01-25T00:01:12;41.65;;;21.60;;
57746;SDS011;43580;44.014;20.466;2023-01-25T00:03:38;39.25;;;19.83;;
57746;SDS011;43580;44.014;20.466;2023-01-25T00:06:04;30.23;;;16.52;;
57746;SDS011;43580;44.014;20.466;2023-01-25T00:08:30;31.42;;;15.50;;
57746;SDS011;43580;44.014;20.466;2023-01-25T00:10:56;26.55;;;14.30;;
57746;SDS011;43580;44.014;20.466;2023-01-25T00:13:22;27.58;;;13.15;;
57746;SDS011;43580;44.014;20.466;2023-01-25T00:15:48;22.45;;;13.27;;
57746;SDS011;43580;44.014;20.466;2023-01-25T00:18:14;34.60;;;18.58;;
57746;SDS011;43580;44.014;20.466;2023-01-25T00:20:40;57.22;;;28.95;;
57746;SDS011;43580;44.014;20.466;2023-01-25T00:23:07;42.75;;;23.35;;
57746;SDS011;43580;44.014;20.466;2023-01-25T00:25:33;36.70;;;19.92;;
57746;SDS011;43580;44.014;20.466;2023-01-25T00:28:01;31.33;;;17.02;;
57746;SDS011;43580;44.014;20.466;2023-01-25T00:30:30;32.40;;;16.70;;
57746;SDS011;43580;44.014;20.466;2023-01-25T00:38:02;23.00;;;11.52;;
57746;SDS011;43580;44.014;20.466;2023-01-25T00:40:33;19.80;;;10.63;;
57746;SDS011;43580;44.014;20.466;2023-01-25T00:42:59;24.02;;;12.82;;
57746;SDS011;43580;44.014;20.466;2023-01-25T00:45:25;28.45;;;15.25;;
57746;SDS011;43580;44.014;20.466;2023-01-25T00:47:54;24.40;;;13.32;;
57746;SDS011;43580;44.014;20.466;2023-01-25T00:50:20;30.58;;;15.55;;
57746;SDS011;43580;44.014;20.466;2023-01-25T00:52:46;26.65;;;14.57;;
57746;SDS011;43580;44.014;20.466;2023-01-25T00:55:12;51.10;;;24.80;;
57746;SDS011;43580;44.014;20.466;2023-01-25T00:57:39;50.90;;;25.65;;
57746;SDS011;43580;44.014;20.466;2023-01-25T01:00:07;50.50;;;24.95;;
57746;SDS011;43580;44.014;20.466;2023-01-25T01:02:33;34.58;;;18.05;;
57746;SDS011;43580;44.014;20.466;2023-01-25T01:04:59;27.38;;;16.98;;
57746;SDS011;43580;44.014;20.466;2023-01-25T01:07:26;45.78;;;23.65;;
57746;SDS011;43580;44.014;20.466;2023-01-25T01:09:52;29.42;;;13.80;;
57746;SDS011;43580;44.014;20.466;2023-01-25T01:12:18;21.55;;;12.20;;
57746;SDS011;43580;44.014;20.466;2023-01-25T01:14:47;27.20;;;13.85;;
57746;SDS011;43580;44.014;20.466;2023-01-25T01:17:13;22.52;;;12.95;;
57746;SDS011;43580;44.014;20.466;2023-01-25T01:19:39;30.58;;;16.13;;
57746;SDS011;43580;44.014;20.466;2023-01-25T01:22:05;24.60;;;12.45;;
57746;SDS011;43580;44.014;20.466;2023-01-25T01:24:33;23.63;;;12.40;;
57746;SDS011;43580;44.014;20.466;2023-01-25T01:26:59;19.85;;;12.10;;
57746;SDS011;43580;44.014;20.466;2023-01-25T01:29:25;23.65;;;13.43;;
57746;SDS011;43580;44.014;20.466;2023-01-25T01:31:51;36.28;;;20.55;;
57746;SDS011;43580;44.014;20.466;2023-01-25T01:34:18;50.17;;;22.95;;
57746;SDS011;43580;44.014;20.466;2023-01-25T01:36:44;43.72;;;19.08;;
57746;SDS011;43580;44.014;20.466;2023-01-25T01:39:10;39.20;;;17.92;;
57746;SDS011;43580;44.014;20.466;2023-01-25T01:41:36;52.75;;;22.02;;
57746;SDS011;43580;44.014;20.466;2023-01-25T01:44:03;48.03;;;23.17;;
57746;SDS011;43580;44.014;20.466;2023-01-25T01:46:34;40.58;;;21.80;;
57746;SDS011;43580;44.014;20.466;2023-01-25T01:49:21;42.88;;;21.60;;
57746;SDS011;43580;44.014;20.466;2023-01-25T01:51:49;20.40;;;9.95;;
57746;SDS011;43580;44.014;20.466;2023-01-25T01:57:03;20.58;;;10.00;;
57746;SDS011;43580;44.014;20.466;2023-01-25T01:59:35;41.05;;;18.67;;
57746;SDS011;43580;44.014;20.466;2023-01-25T02:02:04;39.88;;;22.15;;
57746;SDS011;43580;44.014;20.466;2023-01-25T02:04:35;31.05;;;18.33;;
57746;SDS011;43580;44.014;20.466;2023-01-25T02:07:10;31.33;;;16.30;;
57746;SDS011;43580;44.014;20.466;2023-01-25T02:09:38;35.15;;;21.80;;
57746;SDS011;43580;44.014;20.466;2023-01-25T02:12:07;60.00;;;37.60;;
57746;SDS011;43580;44.014;20.466;2023-01-25T02:14:34;85.97;;;77.35;;
57746;SDS011;43580;44.014;20.466;2023-01-25T02:17:02;50.08;;;24.23;;
57746;SDS011;43580;44.014;20.466;2023-01-25T02:22:03;30.30;;;13.98;;
57746;SDS011;43580;44.014;20.466;2023-01-25T02:24:34;34.08;;;17.65;;
57746;SDS011;43580;44.014;20.466;2023-01-25T02:27:02;31.60;;;17.33;;
57746;SDS011;43580;44.014;20.466;2023-01-25T02:29:29;28.58;;;14.15;;
57746;SDS011;43580;44.014;20.466;2023-01-25T02:31:58;26.48;;;14.13;;
57746;SDS011;43580;44.014;20.466;2023-01-25T02:34:25;26.02;;;15.35;;
57746;SDS011;43580;44.014;20.466;2023-01-25T02:36:56;42.88;;;21.13;;
57746;SDS011;43580;44.014;20.466;2023-01-25T02:39:22;38.70;;;20.85;;
57746;SDS011;43580;44.014;20.466;2023-01-25T02:41:50;28.02;;;16.00;;
57746;SDS011;43580;44.014;20.466;2023-01-25T02:44:19;27.35;;;15.85;;
57746;SDS011;43580;44.014;20.466;2023-01-25T02:46:46;23.00;;;12.32;;
57746;SDS011;43580;44.014;20.466;2023-01-25T02:49:12;23.00;;;12.77;;
57746;SDS011;43580;44.014;20.466;2023-01-25T02:51:39;21.20;;;11.07;;
57746;SDS011;43580;44.014;20.466;2023-01-25T02:54:06;26.50;;;13.82;;
57746;SDS011;43580;44.014;20.466;2023-01-25T02:56:32;24.75;;;12.57;;
57746;SDS011;43580;44.014;20.466;2023-01-25T02:58:59;22.38;;;11.50;;
57746;SDS011;43580;44.014;20.466;2023-01-25T03:01:29;19.90;;;9.63;;
57746;SDS011;43580;44.014;20.466;2023-01-25T03:03:55;40.47;;;21.73;;
57746;SDS011;43580;44.014;20.466;2023-01-25T03:06:21;28.88;;;15.63;;
57746;SDS011;43580;44.014;20.466;2023-01-25T03:08:47;43.50;;;24.23;;
57746;SDS011;43580;44.014;20.466;2023-01-25T03:11:14;33.70;;;19.33;;
57746;SDS011;43580;44.014;20.466;2023-01-25T03:13:40;56.60;;;31.20;;
57746;SDS011;43580;44.014;20.466;2023-01-25T03:16:07;33.60;;;19.23;;
57746;SDS011;43580;44.014;20.466;2023-01-25T03:18:34;26.88;;;13.18;;
57746;SDS011;43580;44.014;20.466;2023-01-25T03:21:07;25.80;;;13.20;;
57746;SDS011;43580;44.014;20.466;2023-01-25T03:23:33;23.98;;;13.45;;
57746;SDS011;43580;44.014;20.466;2023-01-25T03:26:07;24.48;;;12.32;;
57746;SDS011;43580;44.014;20.466;2023-01-25T03:28:33;20.65;;;11.18;;
57746;SDS011;43580;44.014;20.466;2023-01-25T03:30:59;22.95;;;10.55;;
57746;SDS011;43580;44.014;20.466;2023-01-25T03:33:25;18.13;;;10.35;;
57746;SDS011;43580;44.014;20.466;2023-01-25T03:35:52;27.70;;;13.13;;
57746;SDS011;43580;44.014;20.466;2023-01-25T03:38:18;23.45;;;12.15;;
57746;SDS011;43580;44.014;20.466;2023-01-25T03:40:47;31.33;;;14.68;;
57746;SDS011;43580;44.014;20.466;2023-01-25T03:43:15;26.90;;;14.30;;
57746;SDS011;43580;44.014;20.466;2023-01-25T03:45:41;29.67;;;15.10;;
57746;SDS011;43580;44.014;20.466;2023-01-25T03:48:07;29.58;;;13.93;;
57746;SDS011;43580;44.014;20.466;2023-01-25T03:50:34;38.45;;;16.63;;
57746;SDS011;43580;44.014;20.466;2023-01-25T03:53:02;38.25;;;19.00;;
57746;SDS011;43580;44.014;20.466;2023-01-25T03:55:44;38.28;;;18.67;;
57746;SDS011;43580;44.014;20.466;2023-01-25T03:58:10;32.70;;;15.30;;
57746;SDS011;43580;44.014;20.466;2023-01-25T04:00:36;40.65;;;19.85;;
57746;SDS011;43580;44.014;20.466;2023-01-25T04:03:02;44.17;;;18.90;;
57746;SDS011;43580;44.014;20.466;2023-01-25T04:05:28;33.10;;;15.30;;
57746;SDS011;43580;44.014;20.466;2023-01-25T04:07:54;32.80;;;14.63;;
57746;SDS011;43580;44.014;20.466;2023-01-25T04:10:22;39.55;;;19.02;;
57746;SDS011;43580;44.014;20.466;2023-01-25T04:12:49;41.65;;;20.67;;
57746;SDS011;43580;44.014;20.466;2023-01-25T04:15:15;39.60;;;18.67;;
57746;SDS011;43580;44.014;20.466;2023-01-25T04:17:41;43.13;;;20.02;;
57746;SDS011;43580;44.014;20.466;2023-01-25T04:20:07;40.42;;;19.92;;
57746;SDS011;43580;44.014;20.466;2023-01-25T04:22:33;34.92;;;18.02;;
57746;SDS011;43580;44.014;20.466;2023-01-25T04:24:59;37.95;;;18.50;;
57746;SDS011;43580;44.014;20.466;2023-01-25T04:27:25;34.03;;;16.83;;
57746;SDS011;43580;44.014;20.466;2023-01-25T04:29:52;36.65;;;16.40;;
57746;SDS011;43580;44.014;20.466;2023-01-25T04:32:18;40.03;;;17.50;;
57746;SDS011;43580;44.014;20.466;2023-01-25T04:34:46;39.45;;;20.88;;
57746;SDS011;43580;44.014;20.466;2023-01-25T04:37:12;41.50;;;20.65;;
57746;SDS011;43580;44.014;20.466;2023-01-25T04:39:38;108.78;;;52.00;;
57746;SDS011;43580;44.014;20.466;2023-01-25T04:42:04;104.70;;;47.70;;
57746;SDS011;43580;44.014;20.466;2023-01-25T04:44:30;79.88;;;40.90;;
57746;SDS011;43580;44.014;20.466;2023-01-25T04:46:56;67.10;;;35.58;;
57746;SDS011;43580;44.014;20.466;2023-01-25T04:49:22;86.40;;;48.33;;
57746;SDS011;43580;44.014;20.466;2023-01-25T04:51:48;98.40;;;49.50;;
57746;SDS011;43580;44.014;20.466;2023-01-25T04:54:14;56.80;;;25.98;;
57746;SDS011;43580;44.014;20.466;2023-01-25T04:56:40;61.58;;;31.10;;
57746;SDS011;43580;44.014;20.466;2023-01-25T04:59:06;54.83;;;27.05;;
57746;SDS011;43580;44.014;20.466;2023-01-25T05:01:33;57.78;;;30.25;;
57746;SDS011;43580;44.014;20.466;2023-01-25T05:04:01;81.78;;;39.72;;
57746;SDS011;43580;44.014;20.466;2023-01-25T05:06:27;100.82;;;47.60;;
57746;SDS011;43580;44.014;20.466;2023-01-25T05:08:53;66.70;;;33.50;;
57746;SDS011;43580;44.014;20.466;2023-01-25T05:11:19;82.63;;;38.42;;
57746;SDS011;43580;44.014;20.466;2023-01-25T05:13:45;91.00;;;40.17;;
57746;SDS011;43580;44.014;20.466;2023-01-25T05:16:11;66.53;;;32.42;;
57746;SDS011;43580;44.014;20.466;2023-01-25T05:18:37;76.45;;;34.58;;
57746;SDS011;43580;44.014;20.466;2023-01-25T05:21:03;57.35;;;24.52;;
57746;SDS011;43580;44.014;20.466;2023-01-25T05:23:29;70.28;;;30.48;;
57746;SDS011;43580;44.014;20.466;2023-01-25T05:25:55;100.47;;;43.13;;
57746;SDS011;43580;44.014;20.466;2023-01-25T05:28:42;67.85;;;29.63;;
57746;SDS011;43580;44.014;20.466;2023-01-25T05:31:08;63.05;;;31.13;;
57746;SDS011;43580;44.014;20.466;2023-01-25T05:33:34;82.25;;;34.83;;
57746;SDS011;43580;44.014;20.466;2023-01-25T05:36:00;50.65;;;23.55;;
57746;SDS011;43580;44.014;20.466;2023-01-25T05:38:27;54.85;;;25.38;;
57746;SDS011;43580;44.014;20.466;2023-01-25T05:40:56;55.88;;;24.45;;
57746;SDS011;43580;44.014;20.466;2023-01-25T05:43:23;50.95;;;22.92;;
57746;SDS011;43580;44.014;20.466;2023-01-25T05:45:52;51.53;;;24.02;;
57746;SDS011;43580;44.014;20.466;2023-01-25T05:48:18;95.10;;;45.83;;
57746;SDS011;43580;44.014;20.466;2023-01-25T05:50:44;74.00;;;33.92;;
57746;SDS011;43580;44.014;20.466;2023-01-25T05:53:10;66.85;;;33.45;;
57746;SDS011;43580;44.014;20.466;2023-01-25T05:55:36;72.07;;;34.92;;
57746;SDS011;43580;44.014;20.466;2023-01-25T05:58:02;56.33;;;26.67;;
57746;SDS011;43580;44.014;20.466;2023-01-25T06:00:28;50.83;;;22.90;;
57746;SDS011;43580;44.014;20.466;2023-01-25T06:02:54;46.95;;;21.15;;
57746;SDS011;43580;44.014;20.466;2023-01-25T06:05:20;66.07;;;34.55;;
57746;SDS011;43580;44.014;20.466;2023-01-25T06:07:46;65.07;;;30.95;;
57746;SDS011;43580;44.014;20.466;2023-01-25T06:10:12;55.08;;;27.02;;
57746;SDS011;43580;44.014;20.466;2023-01-25T06:12:39;58.75;;;26.30;;
57746;SDS011;43580;44.014;20.466;2023-01-25T06:15:05;75.05;;;33.63;;
57746;SDS011;43580;44.014;20.466;2023-01-25T06:17:31;63.58;;;31.10;;
57746;SDS011;43580;44.014;20.466;2023-01-25T06:19:57;47.92;;;25.75;;
57746;SDS011;43580;44.014;20.466;2023-01-25T06:22:25;49.60;;;28.23;;
57746;SDS011;43580;44.014;20.466;2023-01-25T06:24:54;42.55;;;21.27;;
57746;SDS011;43580;44.014;20.466;2023-01-25T06:27:20;47.50;;;24.52;;
57746;SDS011;43580;44.014;20.466;2023-01-25T06:29:46;45.72;;;20.88;;
57746;SDS011;43580;44.014;20.466;2023-01-25T06:32:12;38.33;;;20.17;;
57746;SDS011;43580;44.014;20.466;2023-01-25T06:34:38;40.95;;;20.38;;
57746;SDS011;43580;44.014;20.466;2023-01-25T06:37:04;41.95;;;19.33;;
57746;SDS011;43580;44.014;20.466;2023-01-25T06:39:30;46.58;;;22.58;;
57746;SDS011;43580;44.014;20.466;2023-01-25T06:41:56;63.30;;;28.08;;
57746;SDS011;43580;44.014;20.466;2023-01-25T06:44:22;60.30;;;29.55;;
57746;SDS011;43580;44.014;20.466;2023-01-25T06:46:48;66.97;;;31.38;;
57746;SDS011;43580;44.014;20.466;2023-01-25T06:49:14;160.65;;;88.93;;
57746;SDS011;43580;44.014;20.466;2023-01-25T06:51:43;77.93;;;39.28;;
57746;SDS011;43580;44.014;20.466;2023-01-25T06:54:09;65.40;;;31.45;;
57746;SDS011;43580;44.014;20.466;2023-01-25T06:56:35;65.10;;;29.20;;
57746;SDS011;43580;44.014;20.466;2023-01-25T06:59:01;56.15;;;27.75;;
57746;SDS011;43580;44.014;20.466;2023-01-25T07:01:27;87.47;;;48.70;;
57746;SDS011;43580;44.014;20.466;2023-01-25T07:03:55;80.60;;;35.20;;
57746;SDS011;43580;44.014;20.466;2023-01-25T07:06:21;67.80;;;31.25;;
57746;SDS011;43580;44.014;20.466;2023-01-25T07:08:48;67.68;;;33.63;;
57746;SDS011;43580;44.014;20.466;2023-01-25T07:11:14;70.43;;;33.20;;
57746;SDS011;43580;44.014;20.466;2023-01-25T07:13:43;109.65;;;61.67;;
57746;SDS011;43580;44.014;20.466;2023-01-25T07:16:17;66.97;;;33.40;;
57746;SDS011;43580;44.014;20.466;2023-01-25T07:18:44;69.15;;;32.30;;
57746;SDS011;43580;44.014;20.466;2023-01-25T07:21:12;71.10;;;33.10;;
57746;SDS011;43580;44.014;20.466;2023-01-25T07:23:39;67.97;;;30.35;;
57746;SDS011;43580;44.014;20.466;2023-01-25T07:26:08;72.03;;;33.38;;
57746;SDS011;43580;44.014;20.466;2023-01-25T07:28:38;90.15;;;37.70;;
57746;SDS011;43580;44.014;20.466;2023-01-25T07:31:05;75.75;;;35.28;;
57746;SDS011;43580;44.014;20.466;2023-01-25T07:33:31;73.95;;;34.22;;
57746;SDS011;43580;44.014;20.466;2023-01-25T07:36:01;73.63;;;35.47;;
57746;SDS011;43580;44.014;20.466;2023-01-25T07:38:27;77.30;;;35.67;;
57746;SDS011;43580;44.014;20.466;2023-01-25T07:40:53;85.93;;;41.15;;
57746;SDS011;43580;44.014;20.466;2023-01-25T07:43:19;80.63;;;38.38;;
57746;SDS011;43580;44.014;20.466;2023-01-25T07:45:45;92.45;;;44.47;;
57746;SDS011;43580;44.014;20.466;2023-01-25T07:48:13;92.95;;;44.70;;
57746;SDS011;43580;44.014;20.466;2023-01-25T07:50:39;80.43;;;39.30;;
57746;SDS011;43580;44.014;20.466;2023-01-25T07:53:06;93.10;;;48.22;;
57746;SDS011;43580;44.014;20.466;2023-01-25T07:55:32;77.43;;;36.95;;
57746;SDS011;43580;44.014;20.466;2023-01-25T07:57:59;99.47;;;47.80;;
57746;SDS011;43580;44.014;20.466;2023-01-25T08:00:25;99.40;;;50.15;;
57746;SDS011;43580;44.014;20.466;2023-01-25T08:02:55;90.53;;;47.05;;
57746;SDS011;43580;44.014;20.466;2023-01-25T08:05:21;97.40;;;47.38;;
57746;SDS011;43580;44.014;20.466;2023-01-25T08:07:49;91.55;;;44.92;;
57746;SDS011;43580;44.014;20.466;2023-01-25T08:10:15;133.77;;;87.53;;
57746;SDS011;43580;44.014;20.466;2023-01-25T08:12:44;95.55;;;50.75;;
57746;SDS011;43580;44.014;20.466;2023-01-25T08:15:11;90.22;;;43.55;;
57746;SDS011;43580;44.014;20.466;2023-01-25T08:17:40;89.50;;;42.35;;
57746;SDS011;43580;44.014;20.466;2023-01-25T08:20:06;97.63;;;48.83;;
57746;SDS011;43580;44.014;20.466;2023-01-25T08:22:33;93.47;;;45.63;;
57746;SDS011;43580;44.014;20.466;2023-01-25T08:24:59;70.35;;;36.58;;
57746;SDS011;43580;44.014;20.466;2023-01-25T08:27:26;63.28;;;34.88;;
57746;SDS011;43580;44.014;20.466;2023-01-25T08:29:53;47.00;;;25.55;;
57746;SDS011;43580;44.014;20.466;2023-01-25T08:32:19;58.83;;;33.20;;
57746;SDS011;43580;44.014;20.466;2023-01-25T08:34:45;51.85;;;27.90;;
57746;SDS011;43580;44.014;20.466;2023-01-25T08:37:11;42.38;;;23.70;;
57746;SDS011;43580;44.014;20.466;2023-01-25T08:39:37;43.35;;;23.80;;
57746;SDS011;43580;44.014;20.466;2023-01-25T08:42:04;47.88;;;25.60;;
57746;SDS011;43580;44.014;20.466;2023-01-25T08:44:32;56.95;;;31.25;;
57746;SDS011;43580;44.014;20.466;2023-01-25T08:46:58;57.13;;;30.60;;
57746;SDS011;43580;44.014;20.466;2023-01-25T08:49:24;66.65;;;33.45;;
57746;SDS011;43580;44.014;20.466;2023-01-25T08:51:51;65.88;;;34.70;;
57746;SDS011;43580;44.014;20.466;2023-01-25T08:54:17;56.00;;;29.55;;
57746;SDS011;43580;44.014;20.466;2023-01-25T08:56:43;58.00;;;29.35;;
57746;SDS011;43580;44.014;20.466;2023-01-25T08:59:14;70.35;;;34.75;;
57746;SDS011;43580;44.014;20.466;2023-01-25T09:01:40;76.47;;;40.80;;
57746;SDS011;43580;44.014;20.466;2023-01-25T09:04:07;61.28;;;31.45;;
57746;SDS011;43580;44.014;20.466;2023-01-25T09:06:33;81.85;;;42.28;;
57746;SDS011;43580;44.014;20.466;2023-01-25T09:08:59;90.15;;;45.22;;
57746;SDS011;43580;44.014;20.466;2023-01-25T09:11:25;87.70;;;46.55;;
57746;SDS011;43580;44.014;20.466;2023-01-25T09:13:51;58.42;;;27.35;;
57746;SDS011;43580;44.014;20.466;2023-01-25T09:16:19;48.70;;;21.52;;
57746;SDS011;43580;44.014;20.466;2023-01-25T09:18:54;46.42;;;24.73;;
57746;SDS011;43580;44.014;20.466;2023-01-25T09:21:21;48.50;;;27.17;;
57746;SDS011;43580;44.014;20.466;2023-01-25T09:23:47;43.53;;;23.10;;
57746;SDS011;43580;44.014;20.466;2023-01-25T09:26:14;64.57;;;35.67;;
57746;SDS011;43580;44.014;20.466;2023-01-25T09:28:41;62.58;;;32.22;;
57746;SDS011;43580;44.014;20.466;2023-01-25T09:31:08;61.00;;;36.00;;
57746;SDS011;43580;44.014;20.466;2023-01-25T09:33:38;64.25;;;37.08;;
57746;SDS011;43580;44.014;20.466;2023-01-25T09:36:04;81.82;;;43.10;;
57746;SDS011;43580;44.014;20.466;2023-01-25T09:38:31;51.85;;;27.95;;
57746;SDS011;43580;44.014;20.466;2023-01-25T09:46:25;61.13;;;36.10;;
57746;SDS011;43580;44.014;20.466;2023-01-25T09:49:19;53.15;;;29.20;;
57746;SDS011;43580;44.014;20.466;2023-01-25T09:52:02;39.92;;;23.38;;
57746;SDS011;43580;44.014;20.466;2023-01-25T09:54:34;44.80;;;24.48;;
57746;SDS011;43580;44.014;20.466;2023-01-25T09:57:02;48.58;;;26.00;;
57746;SDS011;43580;44.014;20.466;2023-01-25T09:59:28;52.50;;;28.15;;
57746;SDS011;43580;44.014;20.466;2023-01-25T10:04:24;69.88;;;38.58;;
57746;SDS011;43580;44.014;20.466;2023-01-25T10:06:53;42.92;;;25.85;;
57746;SDS011;43580;44.014;20.466;2023-01-25T10:11:45;39.47;;;21.40;;
57746;SDS011;43580;44.014;20.466;2023-01-25T10:14:13;37.33;;;20.77;;
57746;SDS011;43580;44.014;20.466;2023-01-25T10:21:39;51.08;;;25.65;;
57746;SDS011;43580;44.014;20.466;2023-01-25T10:29:37;42.90;;;21.40;;
57746;SDS011;43580;44.014;20.466;2023-01-25T10:34:49;38.07;;;20.57;;
57746;SDS011;43580;44.014;20.466;2023-01-25T10:37:17;39.95;;;22.48;;
57746;SDS011;43580;44.014;20.466;2023-01-25T10:40:26;38.88;;;24.67;;
57746;SDS011;43580;44.014;20.466;2023-01-25T10:42:36;34.72;;;21.90;;
57746;SDS011;43580;44.014;20.466;2023-01-25T10:45:13;42.05;;;23.15;;
57746;SDS011;43580;44.014;20.466;2023-01-25T10:47:49;38.88;;;23.65;;
57746;SDS011;43580;44.014;20.466;2023-01-25T10:53:01;41.53;;;25.05;;
57746;SDS011;43580;44.014;20.466;2023-01-25T10:55:27;38.38;;;22.17;;
57746;SDS011;43580;44.014;20.466;2023-01-25T10:57:55;34.30;;;19.15;;
57746;SDS011;43580;44.014;20.466;2023-01-25T11:02:51;35.53;;;18.88;;
57746;SDS011;43580;44.014;20.466;2023-01-25T11:07:46;33.58;;;20.23;;
57746;SDS011;43580;44.014;20.466;2023-01-25T11:10:46;37.58;;;21.35;;
57746;SDS011;43580;44.014;20.466;2023-01-25T11:18:12;59.78;;;29.95;;
57746;SDS011;43580;44.014;20.466;2023-01-25T11:20:40;67.40;;;32.35;;
57746;SDS011;43580;44.014;20.466;2023-01-25T11:23:19;30.27;;;16.17;;
57746;SDS011;43580;44.014;20.466;2023-01-25T11:25:46;29.08;;;16.23;;
57746;SDS011;43580;44.014;20.466;2023-01-25T11:28:17;29.88;;;17.25;;
57746;SDS011;43580;44.014;20.466;2023-01-25T11:30:43;44.35;;;23.08;;
57746;SDS011;43580;44.014;20.466;2023-01-25T11:33:13;41.28;;;22.83;;
57746;SDS011;43580;44.014;20.466;2023-01-25T11:35:43;29.90;;;16.75;;
57746;SDS011;43580;44.014;20.466;2023-01-25T11:38:13;29.48;;;16.98;;
57746;SDS011;43580;44.014;20.466;2023-01-25T11:49:43;36.13;;;20.85;;
57746;SDS011;43580;44.014;20.466;2023-01-25T11:51:40;35.80;;;21.15;;
57746;SDS011;43580;44.014;20.466;2023-01-25T11:56:48;31.92;;;16.83;;
57746;SDS011;43580;44.014;20.466;2023-01-25T12:07:21;36.50;;;21.27;;
57746;SDS011;43580;44.014;20.466;2023-01-25T12:09:55;40.28;;;22.70;;
57746;SDS011;43580;44.014;20.466;2023-01-25T12:28:19;40.17;;;22.77;;
57746;SDS011;43580;44.014;20.466;2023-01-25T12:33:27;53.40;;;29.93;;
57746;SDS011;43580;44.014;20.466;2023-01-25T12:43:17;46.63;;;26.90;;
57746;SDS011;43580;44.014;20.466;2023-01-25T12:45:45;49.63;;;26.80;;
57746;SDS011;43580;44.014;20.466;2023-01-25T12:48:13;51.78;;;31.70;;
57746;SDS011;43580;44.014;20.466;2023-01-25T12:55:42;44.92;;;22.98;;
57746;SDS011;43580;44.014;20.466;2023-01-25T13:08:47;43.38;;;23.30;;
57746;SDS011;43580;44.014;20.466;2023-01-25T13:11:24;35.42;;;21.48;;
57746;SDS011;43580;44.014;20.466;2023-01-25T13:13:52;59.10;;;31.10;;
57746;SDS011;43580;44.014;20.466;2023-01-25T13:16:22;42.53;;;25.02;;
57746;SDS011;43580;44.014;20.466;2023-01-25T13:18:48;48.08;;;27.52;;
57746;SDS011;43580;44.014;20.466;2023-01-25T13:24:21;88.57;;;33.33;;
57746;SDS011;43580;44.014;20.466;2023-01-25T13:26:49;70.50;;;30.65;;
57746;SDS011;43580;44.014;20.466;2023-01-25T13:31:54;54.17;;;23.65;;
57746;SDS011;43580;44.014;20.466;2023-01-25T13:37:16;53.10;;;24.58;;
57746;SDS011;43580;44.014;20.466;2023-01-25T13:39:43;48.38;;;24.02;;
57746;SDS011;43580;44.014;20.466;2023-01-25T13:44:37;40.22;;;20.77;;
57746;SDS011;43580;44.014;20.466;2023-01-25T13:47:10;38.78;;;21.88;;
57746;SDS011;43580;44.014;20.466;2023-01-25T13:49:41;42.47;;;24.00;;
57746;SDS011;43580;44.014;20.466;2023-01-25T13:52:16;53.20;;;31.88;;
57746;SDS011;43580;44.014;20.466;2023-01-25T13:54:43;36.63;;;22.15;;
57746;SDS011;43580;44.014;20.466;2023-01-25T13:57:14;33.17;;;18.27;;
57746;SDS011;43580;44.014;20.466;2023-01-25T13:59:40;35.40;;;22.27;;
57746;SDS011;43580;44.014;20.466;2023-01-25T14:02:40;32.17;;;19.33;;
57746;SDS011;43580;44.014;20.466;2023-01-25T14:04:59;83.43;;;57.08;;
57746;SDS011;43580;44.014;20.466;2023-01-25T14:07:30;42.45;;;27.45;;
57746;SDS011;43580;44.014;20.466;2023-01-25T14:10:01;36.80;;;23.95;;
57746;SDS011;43580;44.014;20.466;2023-01-25T14:12:32;45.25;;;26.05;;
57746;SDS011;43580;44.014;20.466;2023-01-25T14:15:19;35.95;;;21.92;;
57746;SDS011;43580;44.014;20.466;2023-01-25T14:17:45;24.40;;;15.45;;
57746;SDS011;43580;44.014;20.466;2023-01-25T14:22:47;34.13;;;21.73;;
57746;SDS011;43580;44.014;20.466;2023-01-25T14:25:15;34.83;;;21.25;;
57746;SDS011;43580;44.014;20.466;2023-01-25T14:30:30;32.45;;;19.40;;
57746;SDS011;43580;44.014;20.466;2023-01-25T14:33:00;33.53;;;19.60;;
57746;SDS011;43580;44.014;20.466;2023-01-25T14:37:52;52.17;;;33.83;;
57746;SDS011;43580;44.014;20.466;2023-01-25T14:40:27;37.15;;;22.00;;
57746;SDS011;43580;44.014;20.466;2023-01-25T14:42:53;34.33;;;21.83;;
57746;SDS011;43580;44.014;20.466;2023-01-25T14:45:22;35.03;;;21.05;;
57746;SDS011;43580;44.014;20.466;2023-01-25T14:47:50;34.63;;;19.10;;
57746;SDS011;43580;44.014;20.466;2023-01-25T14:50:34;40.80;;;23.20;;
57746;SDS011;43580;44.014;20.466;2023-01-25T14:53:22;43.08;;;23.70;;
57746;SDS011;43580;44.014;20.466;2023-01-25T14:55:49;37.08;;;20.48;;
57746;SDS011;43580;44.014;20.466;2023-01-25T14:58:17;37.38;;;21.08;;
57746;SDS011;43580;44.014;20.466;2023-01-25T15:00:57;32.80;;;19.13;;
57746;SDS011;43580;44.014;20.466;2023-01-25T15:03:24;39.08;;;21.17;;
57746;SDS011;43580;44.014;20.466;2023-01-25T15:05:51;43.03;;;23.25;;
57746;SDS011;43580;44.014;20.466;2023-01-25T15:08:37;44.42;;;27.15;;
57746;SDS011;43580;44.014;20.466;2023-01-25T15:11:05;32.42;;;19.30;;
57746;SDS011;43580;44.014;20.466;2023-01-25T15:14:02;37.22;;;19.60;;
57746;SDS011;43580;44.014;20.466;2023-01-25T15:16:36;44.97;;;25.95;;
57746;SDS011;43580;44.014;20.466;2023-01-25T15:19:03;46.17;;;27.83;;
57746;SDS011;43580;44.014;20.466;2023-01-25T15:21:29;49.22;;;31.77;;
57746;SDS011;43580;44.014;20.466;2023-01-25T15:24:00;49.17;;;29.17;;
57746;SDS011;43580;44.014;20.466;2023-01-25T15:26:29;41.92;;;27.63;;
57746;SDS011;43580;44.014;20.466;2023-01-25T15:28:57;44.80;;;26.33;;
57746;SDS011;43580;44.014;20.466;2023-01-25T15:31:35;45.63;;;27.05;;
57746;SDS011;43580;44.014;20.466;2023-01-25T15:34:04;50.30;;;29.92;;
57746;SDS011;43580;44.014;20.466;2023-01-25T15:36:31;39.92;;;24.90;;
57746;SDS011;43580;44.014;20.466;2023-01-25T15:38:57;186.07;;;79.13;;
57746;SDS011;43580;44.014;20.466;2023-01-25T15:41:23;123.47;;;52.72;;
57746;SDS011;43580;44.014;20.466;2023-01-25T15:43:49;135.13;;;63.65;;
57746;SDS011;43580;44.014;20.466;2023-01-25T15:46:20;72.90;;;35.03;;
57746;SDS011;43580;44.014;20.466;2023-01-25T15:48:47;47.08;;;26.55;;
57746;SDS011;43580;44.014;20.466;2023-01-25T15:51:14;113.18;;;46.25;;
57746;SDS011;43580;44.014;20.466;2023-01-25T15:53:43;74.85;;;38.20;;
57746;SDS011;43580;44.014;20.466;2023-01-25T15:56:17;68.25;;;31.70;;
57746;SDS011;43580;44.014;20.466;2023-01-25T15:58:44;61.92;;;29.35;;
57746;SDS011;43580;44.014;20.466;2023-01-25T16:01:12;59.35;;;29.42;;
57746;SDS011;43580;44.014;20.466;2023-01-25T16:03:38;152.15;;;75.18;;
57746;SDS011;43580;44.014;20.466;2023-01-25T16:08:45;57.45;;;32.10;;
57746;SDS011;43580;44.014;20.466;2023-01-25T16:11:11;52.58;;;29.02;;
57746;SDS011;43580;44.014;20.466;2023-01-25T16:13:37;58.85;;;30.85;;
57746;SDS011;43580;44.014;20.466;2023-01-25T16:16:07;61.17;;;34.35;;
57746;SDS011;43580;44.014;20.466;2023-01-25T16:18:38;69.80;;;35.47;;
57746;SDS011;43580;44.014;20.466;2023-01-25T16:21:04;58.00;;;30.30;;
57746;SDS011;43580;44.014;20.466;2023-01-25T16:23:30;52.97;;;29.17;;